Vernon, NJ (07462)

1:49 AM EDT on September 02, 2014 (GMT -0400)
Drew Mt | Change Station
CLOSE
Current Station
Personal Weather Station
Location: Sussex, NJ
Elevation: 948 ft
Nearby Weather Stations

Elev 948 ft 41.22 °N, 74.53 °W | Updated 6 minutes ago

Clear
Clear
72.5 °F
Feels Like 72.5 °F
N
2.7
Wind Variable Wind from SW

Today
High -- | Low -- °F
--% Chance of Precip.
Yesterday
High -- | Low -- °F
Precip. -- in
6:25 AM 7:29 PM
Waxing Crescent, 48% visible
Pressure 29.94 in
Visibility 4.0 miles
Clouds Clear
Dew Point 71 °F
Humidity 96%
Rainfall 0.00 in
Snow Depth Not available.
UV 0 out of 12
Pollen 5.00 out of 12
Air Quality Not available.
Flu Activity Not available.
SPECI KFWN 020517Z AUTO 00000KT 4SM BR CLR 22/21 A2994 RMK AO1 T02220206

More Conditions Fewer Conditions

Pressure 29.94 in
Visibility 4.0 miles
Clouds Clear
Dew Point 71 °F
Humidity 96%
Rainfall 0.00 in
Snow Depth Not available.
UV 0 out of 12
Pollen 5.00 out of 12
Air Quality Not available.
Flu Activity Not available.
SPECI KFWN 020517Z AUTO 00000KT 4SM BR CLR 22/21 A2994 RMK AO1 T02220206

More Conditions Fewer Conditions

10-Day Weather Forecast

Almanac

Astronomy

Sep. 02, 2014 Rise Set
Actual Time 6:25 AM EDT 7:29 PM EDT
Civil Twilight 5:57 AM EDT 7:57 PM EDT
Nautical Twilight 5:23 AM EDT 8:30 PM EDT
Astronomical Twilight 4:48 AM EDT 9:06 PM EDT
Moon 2:11 PM EDT No Moon Set
Length of Visible Light 14h 00m
Length of Day
13h 03m
Tomorrow will be 2m 39s shorter.
Waxing Crescent, 48% of the Moon is Illuminated
Today
Waxing Crescent
Sep 2
First Quarter
Sep 8
Full
Sep 15
Last Quarter
Sep 24
New

Today's Extremes

State Highs State Lows

Community

WunderPhotos

Upload Photos

1,749,579 photos uploaded!

WunderBlogs® & News

Nearby

Snow Depth

Station Depth Elevation
No new snow has been reported.

Earthquake Activity

City Distance Mag. Time & Date
No recent earthquake activity has been reported nearby.
Minimum magnitude displayed is 2.5.

Coastal Water Temperatures

Place Temperature
No Stations Reporting

Nearby Weather Stations